VIDP/DEL METAR and TAF weather

Enter ICAO airport designator
Station Type Date Time Source
VIDP METAR 2019/12/12 09:00 UTC NOAA

VIDP 120900Z 10010KT 1000 R28/1300 R29/1600 FU SCT040 BKN100 21/10 Q1011 NOSIG


Station Type Date Time Source
VIDP Decoded METAR 2019/12/12 09:00 UTC NOAA

New Delhi / Palam, India (VIDP) 28-34N 077-07E 233M
Dec 12, 2019 - 04:00 AM EST / 2019.12.12 0900 UTC
Wind: from the E (100 degrees) at 12 MPH (10 KT):0
Visibility: less than 1 mile:0
Sky conditions: mostly cloudy
Weather: smoke
Temperature: 69 F (21 C)
Dew Point: 50 F (10 C)
Relative Humidity: 49%
Pressure (altimeter): 29.85 in. Hg (1011 hPa)
ob: VIDP 120900Z 10010KT 1000 R28/1300 R29/1600 FU SCT040 BKN100 21/10 Q1011 NOSIG
cycle: 9

Station Type Date Time Source
VIDP TAF 2019/12/12 06:42 UTC NOAA

TAF TAF VIDP 120500Z 1206/1312 09005KT 1200 FU SCT040 BKN100
BECMG 1209/1211 10008KT 2000 HZ -RA SCT030 BKN080
BECMG 1212/1220 09010G20KT 1000 -TSRA GR FEW035CB OVC090
BECMG 1221/1222 14008KT 1500 RA BR
BECMG 1300/1306 1510G20KT 0500 -TSRA BR FEW035CB

Example: see airport list